Time;durP1;ratioP1;P1;durP2;ratioP2;P2;SDS_P1;SDS_P2;PMS_P1;PMS_P2;Temp;Humidity;BMP_temperature;BMP_pressure;BME280_temperature;BME280_humidity;BME280_pressure;Samples;Min_cycle;Max_cycle;Signal;HPM_P1;HPM_P2
2022/10/02 00:01:47;;;;;;;1.17;1.10;;;16.90;99.90;;;;;;5010704;28;20221;-66
2022/10/02 00:04:21;;;;;;;1.40;1.30;;;16.90;99.90;;;;;;5015679;28;20221;-66
2022/10/02 00:06:49;;;;;;;1.53;1.33;;;16.90;99.90;;;;;;5018924;28;20207;-66
2022/10/02 00:09:24;;;;;;;0.80;0.80;;;16.80;99.90;;;;;;5014524;28;20198;-65
2022/10/02 00:11:56;;;;;;;0.87;0.87;;;16.90;99.90;;;;;;5007856;28;20233;-65
2022/10/02 00:14:26;;;;;;;1.20;1.10;;;16.90;99.90;;;;;;5016042;28;20236;-65
2022/10/02 00:16:56;;;;;;;0.83;0.83;;;17.10;99.90;;;;;;5020172;28;20201;-65
2022/10/02 00:19:25;;;;;;;0.90;0.90;;;16.90;99.90;;;;;;5015940;28;20212;-65
2022/10/02 00:22:07;;;;;;;1.50;1.40;;;16.90;99.90;;;;;;5009477;28;20236;-66
2022/10/02 00:24:39;;;;;;;1.47;1.37;;;16.90;99.90;;;;;;5019093;28;20207;-66
2022/10/02 00:27:15;;;;;;;1.30;1.20;;;16.90;99.90;;;;;;5012884;28;20194;-65
2022/10/02 00:29:49;;;;;;;1.30;1.20;;;17.00;99.90;;;;;;5014761;28;20205;-65
2022/10/02 00:32:24;;;;;;;1.27;1.17;;;17.00;99.90;;;;;;5017383;28;20224;-67
2022/10/02 00:35:24;;;;;;;1.23;1.13;;;17.00;99.90;;;;;;5011312;28;20209;-65
2022/10/02 00:37:58;;;;;;;1.57;1.47;;;16.90;99.90;;;;;;5009788;28;20197;-67
2022/10/02 00:40:39;;;;;;;1.17;1.07;;;17.00;99.90;;;;;;5008444;28;20255;-64
2022/10/02 00:43:14;;;;;;;1.30;1.20;;;16.90;99.90;;;;;;5013136;28;20239;-65
2022/10/02 00:46:04;;;;;;;1.83;1.07;;;16.90;99.90;;;;;;5001857;28;20217;-67
2022/10/02 00:48:51;;;;;;;1.47;1.10;;;16.90;99.90;;;;;;5016282;28;20215;-68
2022/10/02 00:51:30;;;;;;;1.10;1.00;;;17.00;99.90;;;;;;5015464;28;20212;-65
2022/10/02 00:54:07;;;;;;;1.17;1.00;;;17.00;99.90;;;;;;5014861;28;20208;-67
2022/10/02 00:56:40;;;;;;;1.10;1.10;;;17.00;99.90;;;;;;5020731;28;20196;-66
2022/10/02 00:59:33;;;;;;;1.13;1.00;;;17.00;99.90;;;;;;5016759;28;20219;-66
2022/10/02 01:02:05;;;;;;;0.90;0.90;;;17.00;99.90;;;;;;5003842;28;20225;-64
2022/10/02 01:04:35;;;;;;;1.20;1.10;;;17.00;99.90;;;;;;5011968;28;20263;-65
2022/10/02 01:07:06;;;;;;;1.00;1.00;;;17.00;99.90;;;;;;5010491;28;20202;-64
2022/10/02 01:09:34;;;;;;;1.20;1.10;;;17.10;99.90;;;;;;5015724;28;20207;-65
2022/10/02 01:12:01;;;;;;;1.43;1.00;;;17.10;99.90;;;;;;5015781;28;20294;-65
2022/10/02 01:14:35;;;;;;;1.20;1.00;;;17.10;99.90;;;;;;5013673;28;20217;-65
2022/10/02 01:17:03;;;;;;;1.17;1.07;;;17.10;99.90;;;;;;5024888;28;20241;-65
2022/10/02 01:19:36;;;;;;;1.87;1.30;;;17.10;99.90;;;;;;5028105;28;20212;-66
2022/10/02 01:22:15;;;;;;;1.33;1.23;;;17.10;99.90;;;;;;5017309;28;20236;-65
2022/10/02 01:24:49;;;;;;;1.13;1.03;;;17.00;99.90;;;;;;5019906;28;20211;-66
2022/10/02 01:27:16;;;;;;;2.70;1.20;;;17.10;99.90;;;;;;5021976;28;20202;-65
2022/10/02 01:29:46;;;;;;;1.00;1.00;;;17.10;99.90;;;;;;5023202;28;20201;-65
2022/10/02 01:32:13;;;;;;;0.90;0.90;;;17.10;99.90;;;;;;5023040;28;20289;-65
2022/10/02 01:34:39;;;;;;;0.87;0.87;;;17.10;99.90;;;;;;5015438;28;20223;-66
2022/10/02 01:37:08;;;;;;;1.20;1.10;;;17.10;99.90;;;;;;5015116;28;20205;-66
2022/10/02 01:39:35;;;;;;;1.00;1.00;;;17.10;99.90;;;;;;5021270;28;20581;-65
2022/10/02 01:42:03;;;;;;;1.20;1.20;;;17.10;99.90;;;;;;5016136;28;20321;-67
2022/10/02 01:44:31;;;;;;;1.43;1.30;;;17.10;99.90;;;;;;5026078;28;20208;-66
2022/10/02 01:47:04;;;;;;;0.97;0.97;;;17.10;99.90;;;;;;5016096;28;20216;-66
2022/10/02 01:49:46;;;;;;;0.93;0.93;;;17.10;99.90;;;;;;5029320;28;20212;-66
2022/10/02 01:52:34;;;;;;;1.50;1.30;;;17.10;99.90;;;;;;5016224;28;20719;-66
2022/10/02 01:55:14;;;;;;;0.90;0.90;;;17.10;99.90;;;;;;5015850;28;20241;-67
2022/10/02 01:57:54;;;;;;;0.80;0.80;;;17.10;99.90;;;;;;5016975;28;20205;-66
2022/10/02 02:00:23;;;;;;;0.80;0.80;;;17.10;99.90;;;;;;5020024;28;20591;-65
2022/10/02 02:03:01;;;;;;;1.20;1.10;;;17.10;99.90;;;;;;5017348;28;20245;-65
2022/10/02 02:05:40;;;;;;;1.13;1.10;;;17.10;99.90;;;;;;5022135;28;20320;-65
2022/10/02 02:08:11;;;;;;;1.23;1.10;;;17.10;99.90;;;;;;5018780;28;20209;-67
2022/10/02 02:10:48;;;;;;;1.57;1.47;;;17.10;99.90;;;;;;5015091;28;20201;-65
2022/10/02 02:13:22;;;;;;;1.10;1.00;;;17.10;99.90;;;;;;5018356;28;20657;-67
2022/10/02 02:15:57;;;;;;;1.00;1.00;;;17.00;99.90;;;;;;5010595;28;20726;-66
2022/10/02 02:18:33;;;;;;;0.97;0.97;;;17.00;99.90;;;;;;5022368;28;20552;-64
2022/10/02 02:21:06;;;;;;;0.97;0.90;;;16.90;99.90;;;;;;5022444;28;20250;-65
2022/10/02 02:23:38;;;;;;;1.00;1.00;;;17.00;99.90;;;;;;5028327;28;20715;-66
2022/10/02 02:26:08;;;;;;;1.10;1.10;;;16.90;99.90;;;;;;5025382;28;20211;-67
2022/10/02 02:28:41;;;;;;;1.07;1.00;;;16.80;99.90;;;;;;5023378;28;20554;-67
2022/10/02 02:31:11;;;;;;;1.30;1.10;;;16.80;99.90;;;;;;5024507;28;20214;-65
2022/10/02 02:33:42;;;;;;;1.30;1.00;;;16.80;99.90;;;;;;5024648;28;20207;-67
2022/10/02 02:36:12;;;;;;;0.83;0.83;;;16.90;99.90;;;;;;5027704;28;20303;-66
2022/10/02 02:38:44;;;;;;;1.20;1.20;;;16.90;99.90;;;;;;5024075;28;20224;-65
2022/10/02 02:41:14;;;;;;;1.30;1.20;;;17.00;99.90;;;;;;5026080;28;20276;-65
2022/10/02 02:43:46;;;;;;;1.13;1.07;;;16.90;99.90;;;;;;5017562;28;20219;-65
2022/10/02 02:46:18;;;;;;;1.57;1.47;;;16.90;99.90;;;;;;5027453;28;20204;-65
2022/10/02 02:48:49;;;;;;;1.30;1.20;;;17.00;99.90;;;;;;5012678;28;20228;-65
2022/10/02 02:51:19;;;;;;;1.20;1.10;;;16.90;99.90;;;;;;5020557;28;20219;-65
2022/10/02 02:53:50;;;;;;;1.10;1.00;;;16.90;99.90;;;;;;5025240;28;20582;-65
2022/10/02 02:56:19;;;;;;;1.40;0.93;;;16.90;99.90;;;;;;5021102;28;20237;-66
2022/10/02 02:58:52;;;;;;;1.30;1.20;;;16.90;99.90;;;;;;5026329;28;20204;-66
2022/10/02 03:01:19;;;;;;;1.10;1.00;;;16.90;99.90;;;;;;5015190;28;20672;-65
2022/10/02 03:03:47;;;;;;;1.23;1.03;;;16.90;99.90;;;;;;5028676;28;20211;-65
2022/10/02 03:06:30;;;;;;;1.53;1.17;;;16.90;99.90;;;;;;5020467;28;20632;-66
2022/10/02 03:08:58;;;;;;;1.00;1.00;;;16.90;99.90;;;;;;5012753;28;20215;-65
2022/10/02 03:11:36;;;;;;;1.27;1.13;;;16.70;99.90;;;;;;5021911;28;20205;-66
2022/10/02 03:14:12;;;;;;;1.57;1.30;;;16.70;99.90;;;;;;5023849;28;20205;-66
2022/10/02 03:16:50;;;;;;;0.97;0.97;;;16.70;99.90;;;;;;5012081;28;20213;-66
2022/10/02 03:19:34;;;;;;;1.70;0.90;;;16.70;99.90;;;;;;5024559;28;20207;-65
2022/10/02 03:22:09;;;;;;;0.90;0.90;;;16.80;99.90;;;;;;5022262;28;20731;-64
2022/10/02 03:24:45;;;;;;;1.23;1.13;;;16.70;99.90;;;;;;5022975;28;20197;-65
2022/10/02 03:27:17;;;;;;;1.20;1.07;;;16.70;99.90;;;;;;5027012;28;20211;-67
2022/10/02 03:29:50;;;;;;;1.03;1.03;;;16.80;99.90;;;;;;5016039;28;20572;-66
2022/10/02 03:32:18;;;;;;;2.30;1.10;;;16.70;99.90;;;;;;5027819;28;20228;-66
2022/10/02 03:34:47;;;;;;;1.10;1.00;;;16.90;99.90;;;;;;5019872;28;20207;-65
2022/10/02 03:37:14;;;;;;;1.20;1.10;;;16.80;99.90;;;;;;5019904;28;20678;-66
2022/10/02 03:39:43;;;;;;;1.17;1.13;;;16.80;99.90;;;;;;5025062;28;20205;-66
2022/10/02 03:42:11;;;;;;;1.03;1.03;;;16.80;99.90;;;;;;5013195;28;20224;-65
2022/10/02 03:44:38;;;;;;;1.17;1.00;;;16.80;99.90;;;;;;5026523;28;20217;-66
2022/10/02 03:47:06;;;;;;;1.03;1.00;;;16.80;99.90;;;;;;5019760;28;20205;-65
2022/10/02 03:49:33;;;;;;;1.13;1.10;;;16.80;99.90;;;;;;5026933;28;20204;-65
2022/10/02 03:52:00;;;;;;;0.80;0.80;;;16.80;99.90;;;;;;5014020;28;20315;-65
2022/10/02 03:54:31;;;;;;;1.07;1.00;;;16.70;99.90;;;;;;5016421;28;20235;-65
2022/10/02 03:57:04;;;;;;;1.07;0.97;;;16.70;99.90;;;;;;5019458;28;20213;-66
2022/10/02 03:59:39;;;;;;;0.70;0.70;;;16.60;99.90;;;;;;5021999;28;20212;-65
2022/10/02 04:02:13;;;;;;;0.87;0.87;;;16.60;99.90;;;;;;5019149;28;20577;-66
2022/10/02 04:04:46;;;;;;;1.47;1.20;;;16.60;99.90;;;;;;5013643;28;20577;-66
2022/10/02 04:07:17;;;;;;;0.87;0.87;;;16.70;99.90;;;;;;5018472;28;20203;-66
2022/10/02 04:09:49;;;;;;;0.90;0.90;;;16.50;99.90;;;;;;5020990;28;20208;-65
2022/10/02 04:12:22;;;;;;;1.10;1.00;;;16.50;99.90;;;;;;5020751;28;20228;-66
2022/10/02 04:14:54;;;;;;;1.00;1.00;;;16.40;99.90;;;;;;5021849;28;20192;-67
2022/10/02 04:17:26;;;;;;;0.97;0.97;;;16.40;99.90;;;;;;5020932;28;20223;-66
2022/10/02 04:19:57;;;;;;;1.07;1.03;;;16.50;99.90;;;;;;5016401;28;20197;-66
2022/10/02 04:22:33;;;;;;;0.70;0.70;;;16.40;99.90;;;;;;5022180;28;20240;-66
2022/10/02 04:25:04;;;;;;;1.17;1.03;;;16.30;99.90;;;;;;5021039;28;20201;-65
2022/10/02 04:27:36;;;;;;;1.07;0.97;;;16.30;99.90;;;;;;5031034;28;20201;-66
2022/10/02 04:30:07;;;;;;;0.97;0.97;;;16.30;99.90;;;;;;5023343;28;20292;-65
2022/10/02 04:32:36;;;;;;;1.33;0.90;;;16.30;99.90;;;;;;5030712;28;20229;-65
2022/10/02 04:35:09;;;;;;;1.83;1.23;;;16.30;99.90;;;;;;5022756;28;20209;-66
2022/10/02 04:38:02;;;;;;;0.87;0.87;;;16.30;99.90;;;;;;5026212;28;20539;-66
2022/10/02 04:40:49;;;;;;;1.17;1.00;;;16.20;99.90;;;;;;5023416;28;20244;-66
2022/10/02 04:43:28;;;;;;;0.80;0.80;;;16.50;99.90;;;;;;5024767;28;20864;-66
2022/10/02 04:46:07;;;;;;;0.90;0.90;;;16.30;99.90;;;;;;5020692;28;20200;-66
2022/10/02 04:49:04;;;;;;;1.23;1.00;;;16.30;99.90;;;;;;5018189;28;20213;-66
2022/10/02 04:51:47;;;;;;;0.90;0.90;;;16.20;99.90;;;;;;5014698;28;20221;-66
2022/10/02 04:54:41;;;;;;;0.93;0.90;;;16.20;99.90;;;;;;5016733;28;20205;-65
2022/10/02 04:57:22;;;;;;;1.00;1.00;;;16.00;99.90;;;;;;5026548;28;20710;-65
2022/10/02 05:00:02;;;;;;;0.90;0.90;;;16.10;99.90;;;;;;5021252;28;20226;-64
2022/10/02 05:02:41;;;;;;;1.30;1.20;;;16.00;99.90;;;;;;5010734;28;20280;-65
2022/10/02 05:05:23;;;;;;;1.10;1.00;;;15.90;99.90;;;;;;5014127;28;20205;-66
2022/10/02 05:08:13;;;;;;;1.17;0.93;;;15.90;99.90;;;;;;5007999;28;20201;-66
2022/10/02 05:11:09;;;;;;;1.00;1.00;;;15.80;99.90;;;;;;5011327;28;20205;-65
2022/10/02 05:14:05;;;;;;;1.20;1.10;;;15.70;99.90;;;;;;5011658;28;20204;-66
2022/10/02 05:16:50;;;;;;;1.00;1.00;;;15.60;99.90;;;;;;5014457;28;20316;-66
2022/10/02 05:19:40;;;;;;;1.20;1.20;;;15.60;99.90;;;;;;5018346;28;20205;-63
2022/10/02 05:22:40;;;;;;;1.40;1.10;;;15.60;99.90;;;;;;5025275;28;20233;-66
2022/10/02 05:25:24;;;;;;;1.07;1.00;;;15.50;99.90;;;;;;5012546;28;20205;-67
2022/10/02 05:28:07;;;;;;;0.93;0.93;;;15.40;99.90;;;;;;5021612;28;20847;-67
2022/10/02 05:30:41;;;;;;;1.30;1.13;;;15.40;99.90;;;;;;5018665;28;20197;-67
2022/10/02 05:33:31;;;;;;;1.20;1.10;;;15.40;99.90;;;;;;5016039;28;20250;-66
2022/10/02 05:36:29;;;;;;;1.50;1.40;;;15.40;99.90;;;;;;5010395;28;20209;-67
2022/10/02 05:39:07;;;;;;;1.60;1.50;;;15.40;99.90;;;;;;5018053;28;20207;-66
2022/10/02 05:41:45;;;;;;;1.23;1.13;;;15.30;99.90;;;;;;5016428;28;20703;-67
2022/10/02 05:44:16;;;;;;;2.03;1.10;;;15.30;99.90;;;;;;5018721;28;20209;-66
2022/10/02 05:46:46;;;;;;;1.00;1.00;;;15.30;99.90;;;;;;5022043;28;20201;-67
2022/10/02 05:49:18;;;;;;;1.10;1.00;;;15.30;99.90;;;;;;5020601;28;20240;-65
2022/10/02 05:51:52;;;;;;;0.97;0.97;;;15.30;99.90;;;;;;5020819;28;20289;-70
2022/10/02 05:54:33;;;;;;;1.03;1.03;;;15.40;99.90;;;;;;5028913;28;20201;-64
2022/10/02 05:57:07;;;;;;;1.27;1.10;;;15.40;99.90;;;;;;5027989;28;20221;-66
2022/10/02 05:59:41;;;;;;;1.23;1.13;;;15.30;99.90;;;;;;5033524;28;20201;-67
2022/10/02 06:02:19;;;;;;;0.90;0.90;;;15.30;99.90;;;;;;5027163;28;20235;-67
2022/10/02 06:04:54;;;;;;;1.33;1.20;;;15.30;99.90;;;;;;5023550;28;20285;-68
2022/10/02 06:07:21;;;;;;;0.83;0.83;;;15.30;99.90;;;;;;5028966;28;20223;-66
2022/10/02 06:09:56;;;;;;;0.90;0.90;;;15.30;99.90;;;;;;5017102;28;20201;-67
2022/10/02 06:12:29;;;;;;;0.93;0.93;;;15.30;99.90;;;;;;5019566;28;20244;-67
2022/10/02 06:15:03;;;;;;;1.40;1.23;;;15.20;99.90;;;;;;5014972;28;20676;-67
2022/10/02 06:17:34;;;;;;;0.90;0.90;;;15.20;99.90;;;;;;5014539;28;20292;-67
2022/10/02 06:20:05;;;;;;;3.40;1.13;;;15.20;99.90;;;;;;5012904;28;20217;-66
2022/10/02 06:22:39;;;;;;;1.40;1.30;;;15.20;99.90;;;;;;5014802;28;20237;-68
2022/10/02 06:25:16;;;;;;;1.03;1.03;;;15.20;99.90;;;;;;5016206;28;20268;-68
2022/10/02 06:27:49;;;;;;;1.00;1.00;;;15.10;99.90;;;;;;5017815;28;20193;-67
2022/10/02 06:30:18;;;;;;;1.23;1.13;;;15.20;99.90;;;;;;5014108;28;20197;-66
2022/10/02 06:32:52;;;;;;;1.20;1.10;;;15.20;99.90;;;;;;5010565;28;20596;-65
2022/10/02 06:35:38;;;;;;;1.03;1.03;;;15.20;99.90;;;;;;5010183;28;20232;-66
2022/10/02 06:38:18;;;;;;;1.27;1.17;;;15.20;99.90;;;;;;5007287;28;20216;-66
2022/10/02 06:40:50;;;;;;;1.03;1.00;;;15.20;99.90;;;;;;5014429;28;20200;-66
2022/10/02 06:43:32;;;;;;;1.20;1.20;;;15.20;99.90;;;;;;5004424;28;20226;-68
2022/10/02 06:46:12;;;;;;;1.40;0.90;;;15.20;99.90;;;;;;5018321;28;20200;-65
2022/10/02 06:48:47;;;;;;;1.67;1.10;;;15.20;99.90;;;;;;5020901;28;20205;-67
2022/10/02 06:51:23;;;;;;;1.00;1.00;;;15.30;99.90;;;;;;5014978;28;20311;-66
2022/10/02 06:54:23;;;;;;;1.10;1.10;;;15.30;99.90;;;;;;5013145;28;20201;-66
2022/10/02 06:57:16;;;;;;;1.20;1.10;;;15.30;99.90;;;;;;4998166;28;20224;-66
2022/10/02 06:59:58;;;;;;;2.77;1.00;;;15.40;99.90;;;;;;5015791;28;20234;-68
2022/10/02 07:02:41;;;;;;;0.77;0.77;;;15.40;99.90;;;;;;5024772;28;20228;-67
2022/10/02 07:05:32;;;;;;;0.80;0.80;;;15.50;99.90;;;;;;5024844;28;20749;-67
2022/10/02 07:08:09;;;;;;;1.07;0.97;;;15.60;99.90;;;;;;5023264;28;20197;-67
2022/10/02 07:10:42;;;;;;;1.07;0.97;;;15.60;99.90;;;;;;5022441;28;20211;-67
2022/10/02 07:13:26;;;;;;;0.50;0.50;;;15.60;99.90;;;;;;5027507;28;20225;-67
2022/10/02 07:16:27;;;;;;;1.27;0.97;;;15.70;99.90;;;;;;5022587;28;20197;-65
2022/10/02 07:19:06;;;;;;;1.03;0.93;;;15.80;99.90;;;;;;5022745;28;20207;-67
2022/10/02 07:21:44;;;;;;;1.00;1.00;;;15.80;99.90;;;;;;5027786;28;20311;-68
2022/10/02 07:24:30;;;;;;;0.80;0.80;;;15.90;99.90;;;;;;5028769;28;20283;-68
2022/10/02 07:27:03;;;;;;;0.80;0.80;;;16.00;99.90;;;;;;5024712;28;20284;-66
2022/10/02 07:29:42;;;;;;;0.70;0.70;;;16.00;99.90;;;;;;5026313;28;20222;-67
2022/10/02 07:32:41;;;;;;;0.60;0.60;;;16.20;99.90;;;;;;5030806;28;20583;-68
2022/10/02 07:35:29;;;;;;;0.70;0.70;;;16.30;99.90;;;;;;5009783;28;20216;-66
2022/10/02 07:38:09;;;;;;;0.70;0.70;;;16.30;99.90;;;;;;5005322;28;20261;-66
2022/10/02 07:40:47;;;;;;;0.70;0.70;;;16.40;99.90;;;;;;5017396;28;20211;-65
2022/10/02 07:43:34;;;;;;;1.33;1.30;;;16.50;99.90;;;;;;5012695;28;20220;-66
2022/10/02 07:46:14;;;;;;;0.80;0.80;;;16.60;99.90;;;;;;5015896;28;20200;-67
2022/10/02 07:48:56;;;;;;;0.90;0.90;;;16.60;99.90;;;;;;5010232;28;20259;-66
2022/10/02 07:51:48;;;;;;;0.90;0.90;;;16.60;99.90;;;;;;5023897;28;20545;-67
2022/10/02 07:54:43;;;;;;;0.80;0.80;;;16.70;99.90;;;;;;5022513;28;20212;-69
2022/10/02 07:57:25;;;;;;;0.77;0.77;;;16.70;99.90;;;;;;5023606;28;20220;-66
2022/10/02 07:59:56;;;;;;;1.13;0.90;;;16.70;99.90;;;;;;5017598;28;20204;-66
2022/10/02 08:02:32;;;;;;;0.70;0.70;;;16.80;99.90;;;;;;5025605;28;20231;-67
2022/10/02 08:05:03;;;;;;;1.10;1.00;;;16.80;99.90;;;;;;5021931;28;20202;-67
2022/10/02 08:07:30;;;;;;;0.40;0.40;;;16.80;99.90;;;;;;5029492;28;20269;-67
2022/10/02 08:10:02;;;;;;;0.60;0.60;;;16.90;99.90;;;;;;5015661;28;20520;-67
2022/10/02 08:12:35;;;;;;;0.50;0.50;;;17.00;99.90;;;;;;5022309;28;20227;-65
2022/10/02 08:15:04;;;;;;;1.20;1.20;;;17.10;99.90;;;;;;5026424;28;20296;-65
2022/10/02 08:17:39;;;;;;;0.80;0.80;;;17.20;99.90;;;;;;5021574;28;20911;-66
2022/10/02 08:20:15;;;;;;;2.20;0.80;;;17.20;99.90;;;;;;5017418;28;20262;-66
2022/10/02 08:22:46;;;;;;;0.33;0.33;;;17.30;99.90;;;;;;5025935;28;20620;-65
2022/10/02 08:25:19;;;;;;;0.23;0.23;;;17.40;99.90;;;;;;5019640;28;20289;-65
2022/10/02 08:27:51;;;;;;;0.47;0.47;;;17.50;99.90;;;;;;5015197;28;20272;-67
2022/10/02 08:30:18;;;;;;;0.50;0.50;;;17.60;99.90;;;;;;5014951;28;20787;-66
2022/10/02 08:32:47;;;;;;;0.30;0.30;;;17.60;99.90;;;;;;5020729;28;20586;-67
2022/10/02 08:35:16;;;;;;;0.60;0.60;;;17.70;99.90;;;;;;5018523;28;20208;-66
2022/10/02 08:38:09;;;;;;;0.40;0.40;;;17.80;99.90;;;;;;5009877;28;20216;-65
2022/10/02 08:41:12;;;;;;;0.77;0.77;;;17.80;99.90;;;;;;5018396;28;20204;-67
2022/10/02 08:44:05;;;;;;;0.50;0.50;;;17.80;99.90;;;;;;4991294;28;20674;-67
2022/10/02 08:47:06;;;;;;;0.50;0.50;;;17.80;99.90;;;;;;5020818;28;20240;-66
2022/10/02 08:50:06;;;;;;;2.03;0.60;;;18.00;99.90;;;;;;5025108;28;20194;-67
2022/10/02 08:53:09;;;;;;;0.50;0.50;;;18.00;99.90;;;;;;5025728;28;20224;-66
2022/10/02 08:56:21;;;;;;;0.30;0.30;;;18.10;99.90;;;;;;5023121;28;20201;-65
2022/10/02 08:59:24;;;;;;;0.40;0.40;;;18.20;99.90;;;;;;4995017;28;20509;-66
2022/10/02 09:02:39;;;;;;;0.30;0.30;;;18.30;99.90;;;;;;5009860;28;20304;-65
2022/10/02 09:05:51;;;;;;;0.20;0.20;;;18.40;99.90;;;;;;5010698;28;20584;-66
2022/10/02 09:08:56;;;;;;;0.20;0.20;;;18.40;99.90;;;;;;5013207;28;20229;-66
2022/10/02 09:12:15;;;;;;;0.23;0.23;;;18.50;99.90;;;;;;4996978;28;20610;-67
2022/10/02 09:15:08;;;;;;;0.20;0.20;;;18.50;99.90;;;;;;5009971;28;20287;-66
2022/10/02 09:17:48;;;;;;;0.17;0.17;;;18.70;99.90;;;;;;5021049;28;20240;-67
2022/10/02 09:20:47;;;;;;;0.20;0.20;;;18.80;99.90;;;;;;5012987;28;20212;-67
2022/10/02 09:23:44;;;;;;;0.23;0.10;;;18.80;99.90;;;;;;5009571;28;20232;-67
2022/10/02 09:26:19;;;;;;;0.10;0.10;;;18.90;99.90;;;;;;5015822;28;20216;-67
2022/10/02 09:29:29;;;;;;;0.23;0.23;;;19.10;99.90;;;;;;5017048;28;20210;-67
2022/10/02 09:32:42;;;;;;;0.10;0.10;;;19.30;99.90;;;;;;5019249;28;20300;-67
2022/10/02 09:35:41;;;;;;;0.23;0.23;;;19.40;99.90;;;;;;5019228;28;20550;-66
2022/10/02 09:38:28;;;;;;;0.23;0.23;;;19.50;99.90;;;;;;5013137;28;20235;-68
2022/10/02 09:41:33;;;;;;;0.30;0.30;;;19.60;99.90;;;;;;5011026;28;20262;-66
2022/10/02 09:44:30;;;;;;;0.20;0.20;;;19.70;99.90;;;;;;5018890;28;20217;-65
2022/10/02 09:47:43;;;;;;;0.17;0.17;;;19.80;99.90;;;;;;5009443;28;20202;-66
2022/10/02 09:50:33;;;;;;;0.20;0.20;;;19.90;99.90;;;;;;5023703;28;20204;-65
2022/10/02 09:53:33;;;;;;;0.23;0.23;;;20.10;99.90;;;;;;5021765;28;20221;-66
2022/10/02 09:56:30;;;;;;;0.20;0.20;;;20.10;99.90;;;;;;5019061;28;20216;-66
2022/10/02 09:59:38;;;;;;;0.30;0.30;;;20.10;99.90;;;;;;5017859;28;20205;-66
2022/10/02 10:02:38;;;;;;;0.80;0.30;;;20.00;99.90;;;;;;5003323;28;20733;-67
2022/10/02 10:05:25;;;;;;;0.10;0.10;;;19.90;99.90;;;;;;5019801;28;20234;-67
2022/10/02 10:08:16;;;;;;;0.50;0.50;;;19.90;99.90;;;;;;5014877;28;20218;-67
2022/10/02 10:11:08;;;;;;;0.20;0.20;;;19.90;99.90;;;;;;5016877;28;20243;-66
2022/10/02 10:14:05;;;;;;;0.50;0.50;;;20.00;99.90;;;;;;5025362;28;20295;-66
2022/10/02 10:17:08;;;;;;;0.30;0.30;;;20.00;99.90;;;;;;5017126;28;20209;-66
2022/10/02 10:20:10;;;;;;;1.00;0.40;;;20.10;99.90;;;;;;5023596;28;20232;-65
2022/10/02 10:23:06;;;;;;;0.13;0.13;;;20.10;99.90;;;;;;5019063;28;20282;-66
2022/10/02 10:26:04;;;;;;;0.20;0.20;;;20.10;99.90;;;;;;5027850;28;20221;-65
2022/10/02 10:29:31;;;;;;;0.40;0.30;;;20.10;99.90;;;;;;5019318;28;20211;-67
2022/10/02 10:32:29;;;;;;;0.30;0.30;;;20.00;99.90;;;;;;4959704;28;20589;-65
2022/10/02 10:35:41;;;;;;;0.30;0.30;;;20.00;99.90;;;;;;4964163;28;20206;-66
2022/10/02 10:38:36;;;;;;;0.33;0.33;;;20.00;99.90;;;;;;4969399;28;20238;-65
2022/10/02 10:41:35;;;;;;;0.27;0.27;;;20.00;99.90;;;;;;4969783;28;20202;-67
2022/10/02 10:44:50;;;;;;;0.30;0.30;;;19.90;99.90;;;;;;4965843;28;20230;-65
2022/10/02 10:47:47;;;;;;;0.30;0.30;;;19.90;99.90;;;;;;4966776;28;20262;-65
2022/10/02 10:50:37;;;;;;;0.20;0.20;;;19.80;99.90;;;;;;4961324;28;20306;-66
2022/10/02 10:53:21;;;;;;;0.53;0.53;;;19.80;99.90;;;;;;4964663;28;20265;-66
2022/10/02 10:56:24;;;;;;;0.20;0.20;;;19.80;99.90;;;;;;4964530;28;20207;-67
2022/10/02 10:59:11;;;;;;;0.20;0.20;;;19.80;99.90;;;;;;4968632;28;20226;-67
2022/10/02 11:01:45;;;;;;;0.10;0.10;;;19.70;99.90;;;;;;4964279;28;20237;-67
2022/10/02 11:04:38;;;;;;;0.30;0.30;;;19.70;99.90;;;;;;5012077;28;20578;-67
2022/10/02 11:07:15;;;;;;;0.30;0.30;;;19.60;99.90;;;;;;5016603;28;20215;-66
2022/10/02 11:10:03;;;;;;;0.43;0.20;;;19.60;99.90;;;;;;5016669;28;20193;-67
2022/10/02 11:12:52;;;;;;;0.23;0.23;;;19.60;99.90;;;;;;5014041;28;20311;-67
2022/10/02 11:15:38;;;;;;;0.20;0.20;;;19.60;99.90;;;;;;5012196;28;20292;-66
2022/10/02 11:18:30;;;;;;;0.20;0.20;;;19.50;99.90;;;;;;5011168;28;20233;-66
2022/10/02 11:21:10;;;;;;;0.30;0.30;;;19.40;99.90;;;;;;5009187;28;20367;-66
2022/10/02 11:24:07;;;;;;;0.30;0.30;;;19.30;99.90;;;;;;5016263;28;20216;-66
2022/10/02 11:26:53;;;;;;;0.23;0.20;;;19.20;99.90;;;;;;5019328;28;20205;-67
2022/10/02 11:29:53;;;;;;;0.20;0.20;;;19.20;99.90;;;;;;5022333;28;20208;-67
2022/10/02 11:32:49;;;;;;;0.37;0.30;;;19.10;99.90;;;;;;5023504;28;20228;-65
2022/10/02 11:35:23;;;;;;;0.10;0.10;;;19.10;99.90;;;;;;5021095;28;20688;-66
2022/10/02 11:38:11;;;;;;;0.60;0.60;;;19.00;99.90;;;;;;5026008;28;20212;-68
2022/10/02 11:41:08;;;;;;;0.30;0.30;;;19.00;99.90;;;;;;5007596;28;20243;-68
2022/10/02 11:44:08;;;;;;;0.13;0.13;;;18.90;99.90;;;;;;5025183;28;20225;-66
2022/10/02 11:47:10;;;;;;;0.47;0.47;;;18.90;99.90;;;;;;5017296;28;20359;-66
2022/10/02 11:49:57;;;;;;;0.20;0.20;;;18.90;99.90;;;;;;5029322;28;20209;-67
2022/10/02 11:52:43;;;;;;;0.27;0.20;;;19.00;99.90;;;;;;5019918;28;20700;-68
2022/10/02 11:55:27;;;;;;;0.20;0.20;;;19.00;99.90;;;;;;5019931;28;20211;-67
2022/10/02 11:58:19;;;;;;;0.20;0.20;;;19.00;99.90;;;;;;5014676;28;20235;-66
2022/10/02 12:01:23;;;;;;;0.10;0.10;;;19.00;99.90;;;;;;5024597;28;20246;-67
2022/10/02 12:04:11;;;;;;;0.10;0.10;;;19.20;99.90;;;;;;4947072;29;20215;-68
2022/10/02 12:06:55;;;;;;;0.13;0.13;;;19.20;99.90;;;;;;5026139;28;20596;-65
2022/10/02 12:09:32;;;;;;;0.10;0.10;;;19.30;99.90;;;;;;5026839;28;20201;-66
2022/10/02 12:12:13;;;;;;;0.23;0.20;;;19.40;99.90;;;;;;5034306;28;20656;-67
2022/10/02 12:14:48;;;;;;;0.10;0.10;;;19.60;99.90;;;;;;5029294;28;20207;-68
2022/10/02 12:17:31;;;;;;;0.20;0.20;;;19.60;99.90;;;;;;5025344;28;20215;-67
2022/10/02 12:28:54;;;;;;;0.10;0.10;;;20.10;99.90;;;;;;5021594;28;20234;-67
2022/10/02 12:31:31;;;;;;;0.20;0.20;;;20.30;99.90;;;;;;5023621;28;20244;-67
2022/10/02 12:34:07;;;;;;;0.13;0.13;;;20.50;99.90;;;;;;5032170;28;20212;-66
2022/10/02 12:36:45;;;;;;;0.30;0.30;;;20.80;99.90;;;;;;5036988;28;20211;-66
2022/10/02 12:39:25;;;;;;;0.20;0.20;;;20.80;99.90;;;;;;5026894;28;20228;-67
2022/10/02 12:42:14;;;;;;;0.10;0.10;;;20.90;99.90;;;;;;5023016;28;20221;-65
2022/10/02 12:45:19;;;;;;;0.20;0.20;;;20.90;99.90;;;;;;5024994;28;20212;-68
2022/10/02 12:48:16;;;;;;;0.20;0.20;;;20.70;99.90;;;;;;5014397;28;20255;-66
2022/10/02 12:51:11;;;;;;;0.20;0.20;;;20.60;99.90;;;;;;5017635;28;20208;-67
2022/10/02 12:54:14;;;;;;;0.20;0.20;;;20.50;99.90;;;;;;5023863;28;20471;-66
2022/10/02 12:57:50;;;;;;;0.07;0.07;;;20.30;99.90;;;;;;5006266;28;20208;-65
2022/10/02 13:00:04;;;;;;;0.20;0.20;;;20.20;99.90;;;;;;5015305;28;20205;-68
2022/10/02 13:03:16;;;;;;;0.10;0.10;;;20.20;99.90;;;;;;5028169;28;20313;-67
2022/10/02 13:05:53;;;;;;;0.10;0.10;;;20.30;99.90;;;;;;5016922;28;20220;-66
2022/10/02 13:08:34;;;;;;;0.10;0.10;;;20.30;99.90;;;;;;5026509;28;20204;-68
2022/10/02 13:11:11;;;;;;;0.30;0.30;;;20.30;99.90;;;;;;5015368;28;20228;-66
2022/10/02 13:13:56;;;;;;;0.10;0.10;;;20.30;99.90;;;;;;5027871;28;20201;-66
2022/10/02 13:16:31;;;;;;;0.17;0.17;;;20.10;99.90;;;;;;5026422;28;20203;-66
2022/10/02 13:19:08;;;;;;;0.20;0.20;;;20.10;99.90;;;;;;5030057;28;20295;-66
2022/10/02 13:21:46;;;;;;;0.23;0.23;;;20.10;99.90;;;;;;5037899;28;20332;-66
2022/10/02 13:24:33;;;;;;;0.17;0.17;;;20.10;99.90;;;;;;5045969;28;20223;-67
2022/10/02 13:27:15;;;;;;;0.20;0.13;;;20.00;99.90;;;;;;5035285;28;20224;-69
2022/10/02 13:29:54;;;;;;;0.20;0.20;;;19.90;99.90;;;;;;5011731;28;20570;-68
2022/10/02 13:32:52;;;;;;;0.20;0.20;;;19.80;99.90;;;;;;5013082;28;20224;-67
2022/10/02 13:35:34;;;;;;;0.40;0.40;;;19.70;99.90;;;;;;5017053;28;20208;-67
2022/10/02 13:38:27;;;;;;;0.33;0.33;;;19.50;99.90;;;;;;5010480;28;20217;-66
2022/10/02 13:41:02;;;;;;;0.40;0.40;;;19.30;99.90;;;;;;5003120;28;20204;-67
2022/10/02 13:43:55;;;;;;;0.20;0.20;;;19.10;99.90;;;;;;5016786;28;20307;-66
2022/10/02 13:46:38;;;;;;;0.20;0.20;;;18.90;99.90;;;;;;5020334;28;20201;-67
2022/10/02 13:49:13;;;;;;;0.40;0.40;;;18.70;99.90;;;;;;5018467;28;20203;-67
2022/10/02 13:51:52;;;;;;;0.60;0.60;;;18.50;99.90;;;;;;5015329;28;20227;-66
2022/10/02 13:54:39;;;;;;;0.40;0.40;;;18.30;99.90;;;;;;5011671;28;20259;-67
2022/10/02 13:57:17;;;;;;;0.20;0.20;;;18.20;99.90;;;;;;5015415;28;20211;-68
2022/10/02 14:00:03;;;;;;;0.40;0.40;;;18.20;99.90;;;;;;5012626;28;20711;-66
2022/10/02 14:02:42;;;;;;;0.27;0.27;;;18.20;99.90;;;;;;5020915;28;20236;-67
2022/10/02 14:05:20;;;;;;;0.40;0.40;;;18.20;99.90;;;;;;5014361;28;20213;-66
2022/10/02 14:08:01;;;;;;;0.30;0.30;;;18.20;99.90;;;;;;5010250;28;20203;-67
2022/10/02 14:10:40;;;;;;;0.60;0.60;;;18.00;99.90;;;;;;5016856;28;20201;-65
2022/10/02 14:13:23;;;;;;;0.50;0.50;;;18.00;99.90;;;;;;5018111;28;20232;-67